• Join FlightAware (Why Join?)
  • Login
  • US Flag 
05:20PM EDT


 

Airport Tracker/Info


-or-


 

Live Flight TrackerFlight Track Log ✈ N779NC ✈ 01-Jul-2013 ✈ KSAV - KATL

Flight Track Log - Related Links

Times and Time Zones

All times are in EDT time to prevent confusion due to time zone crossing. See the N779NC flight status page for this flight to view local times or setup timezone preferences in your user account.

Time Position Orientation Groundspeed Altitude Reporting Facility
EDT Latitude Longitude Course Direction KTS MPH feet Rate Location/Type
10:26AM 32.1317 -81.3128 287° West 214 246 3,100  Level Jacksonville Center
10:27AM 32.1761 -81.3733 311° West 214 246 4,800 1,980 Climbing Jacksonville Center
10:28AM 32.1951 -81.4802 286° West  Level FlightAware Approximate
10:28AM 32.2353 -81.4336 319° Northwest 261 300 7,100  Level Jacksonville Center
10:29AM 32.2263 -81.5717 287° West  Level FlightAware Approximate
10:29AM 32.2675 -81.5069 297° West 274 315 9,600  Level Jacksonville Center
10:30AM 32.2501 -81.6671 288° West  Level FlightAware Approximate
10:30AM 32.2978 -81.6047 290° West 292 336 11,000  Level Jacksonville Center
10:31AM 32.2760 -81.7617 288° West  Level FlightAware Approximate
10:31AM 32.3364 -81.7122 293° West 339 390 13,100  Level Jacksonville Center
10:32AM 32.3016 -81.8564 287° West  Level FlightAware Approximate
10:34AM 32.4453 -81.9739 296° West 369 425 18,000  Level Atlanta Center
10:35AM 32.4969 -82.0786 300° West 374 430 19,900 1,740 Climbing Atlanta Center
10:36AM 32.5447 -82.1958 296° West 382 440 21,500 1,020 Climbing Atlanta Center
10:37AM 32.5883 -82.3181 293° West 387 445 22,000 240 Climbing Atlanta Center
10:38AM 32.5900 -82.4586 271° West 402 463 22,000  Level Atlanta Center
10:39AM 32.6169 -82.5961 283° West 418 481 22,000  Level Atlanta Center
10:40AM 32.6558 -82.7239 290° West 423 487 22,000  Level Atlanta Center
10:41AM 32.6947 -82.8517 290° West 417 480 22,000  Level Atlanta Center
10:43AM 32.7722 -83.1272 289° West 438 504 22,000 -60 Level Atlanta Center
10:44AM 32.8378 -83.2453 303° West 426 490 21,900 -1,200 Descending Atlanta Center
10:45AM 32.9239 -83.3408 317° Northwest 449 517 19,600 -2,400 Descending Atlanta Center
10:46AM 32.9892 -83.4592 303° West 449 517 17,200 -2,340 Descending Atlanta Center
10:47AM 33.0669 -83.5878 306° West 438 504 15,000 -1,620 Descending Atlanta Center
10:48AM 33.1300 -83.6742 311° West 409 471 14,000 -540 Descending Atlanta Center
10:49AM 33.1992 -83.7781 309° West 409 471 14,000  Level Atlanta Center
10:50AM 33.2703 -83.8847 309° West 403 464 14,000 -540 Level Atlanta Center
10:51AM 33.3539 -83.9917 313° West 408 470 13,000 -900 Descending Atlanta Center
10:52AM 33.4247 -84.0886 311° West 403 464 12,300 -480 Descending Atlanta Center
10:53AM 33.4706 -84.1808 301° West 359 413 12,100 -120 Descending Atlanta Center
10:54AM 33.5122 -84.2681 300° West 319 367 12,100 -600 Level Atlanta Center
10:55AM 33.5267 -84.3628 280° West 290 334 10,900 -1,500 Descending Atlanta Center
10:56AM 33.5389 -84.4550 279° West 290 334 9,200 -2,220 Descending Atlanta Center
10:57AM 33.5344 -84.5447 267° West 280 322 6,500 -1,920 Descending Atlanta Center
10:59AM 33.5333 -84.7167 270° West 265 305 3,300 -1,140 Descending Atlanta TRACON
11:00AM 33.5833 -84.7500 331° Northwest 226 260 3,000 -180 Descending Atlanta TRACON
11:01AM 33.6167 -84.7000 51° Northeast 196 226 3,000  Level Atlanta TRACON